sensor_id;sensor_type;location;lat;lon;timestamp;pressure;altitude;pressure_sealevel;temperature;humidity
46574;BME280;32299;53.366;-1.544;2022-07-26T00:00:48;99025.02;;;17.61;42.48
46574;BME280;32299;53.366;-1.544;2022-07-26T00:03:15;99027.43;;;17.95;42.17
46574;BME280;32299;53.366;-1.544;2022-07-26T00:05:43;99034.08;;;17.95;42.10
46574;BME280;32299;53.366;-1.544;2022-07-26T00:08:10;99038.57;;;17.93;42.14
46574;BME280;32299;53.366;-1.544;2022-07-26T00:10:39;99039.52;;;17.84;42.31
46574;BME280;32299;53.366;-1.544;2022-07-26T00:13:07;99043.46;;;17.96;42.04
46574;BME280;32299;53.366;-1.544;2022-07-26T00:15:35;99048.07;;;17.84;42.36
46574;BME280;32299;53.366;-1.544;2022-07-26T00:18:02;99053.66;;;17.94;42.11
46574;BME280;32299;53.366;-1.544;2022-07-26T00:20:29;99057.42;;;17.92;42.26
46574;BME280;32299;53.366;-1.544;2022-07-26T00:22:56;99061.41;;;17.92;42.04
46574;BME280;32299;53.366;-1.544;2022-07-26T00:25:23;99066.95;;;17.82;42.24
46574;BME280;32299;53.366;-1.544;2022-07-26T00:27:50;99067.64;;;17.88;42.10
46574;BME280;32299;53.366;-1.544;2022-07-26T00:30:17;99071.25;;;18.14;42.08
46574;BME280;32299;53.366;-1.544;2022-07-26T00:32:45;99074.60;;;17.20;42.60
46574;BME280;32299;53.366;-1.544;2022-07-26T00:35:12;99076.34;;;17.72;42.53
46574;BME280;32299;53.366;-1.544;2022-07-26T00:37:40;99080.09;;;17.83;42.25
46574;BME280;32299;53.366;-1.544;2022-07-26T00:40:09;99081.31;;;17.77;42.30
46574;BME280;32299;53.366;-1.544;2022-07-26T00:42:36;99082.56;;;17.71;42.35
46574;BME280;32299;53.366;-1.544;2022-07-26T00:45:04;99085.27;;;17.65;42.57
46574;BME280;32299;53.366;-1.544;2022-07-26T00:47:32;99086.69;;;17.72;42.41
46574;BME280;32299;53.366;-1.544;2022-07-26T00:50:00;99086.62;;;18.03;42.32
46574;BME280;32299;53.366;-1.544;2022-07-26T00:52:28;99090.33;;;17.57;42.16
46574;BME280;32299;53.366;-1.544;2022-07-26T00:54:55;99087.78;;;17.73;42.10
46574;BME280;32299;53.366;-1.544;2022-07-26T00:57:22;99087.46;;;17.50;42.25
46574;BME280;32299;53.366;-1.544;2022-07-26T00:59:50;99092.58;;;17.63;42.44
46574;BME280;32299;53.366;-1.544;2022-07-26T01:02:23;99094.72;;;17.74;42.17
46574;BME280;32299;53.366;-1.544;2022-07-26T01:04:50;99094.10;;;17.38;42.76
46574;BME280;32299;53.366;-1.544;2022-07-26T01:07:17;99088.89;;;17.84;42.48
46574;BME280;32299;53.366;-1.544;2022-07-26T01:09:45;99083.50;;;17.44;42.84
46574;BME280;32299;53.366;-1.544;2022-07-26T01:12:12;99079.81;;;17.43;42.56
46574;BME280;32299;53.366;-1.544;2022-07-26T01:14:41;99078.96;;;17.51;42.64
46574;BME280;32299;53.366;-1.544;2022-07-26T01:17:09;99078.83;;;17.50;43.12
46574;BME280;32299;53.366;-1.544;2022-07-26T01:19:36;99072.13;;;17.75;42.47
46574;BME280;32299;53.366;-1.544;2022-07-26T01:22:03;99076.51;;;17.82;42.30
46574;BME280;32299;53.366;-1.544;2022-07-26T01:24:31;99081.40;;;17.80;42.44
46574;BME280;32299;53.366;-1.544;2022-07-26T01:26:58;99080.00;;;17.53;42.41
46574;BME280;32299;53.366;-1.544;2022-07-26T01:29:25;99084.68;;;17.49;42.42
46574;BME280;32299;53.366;-1.544;2022-07-26T01:31:53;99094.18;;;18.03;42.19
46574;BME280;32299;53.366;-1.544;2022-07-26T01:34:20;99094.70;;;17.45;42.55
46574;BME280;32299;53.366;-1.544;2022-07-26T01:36:47;99093.64;;;17.72;42.45
46574;BME280;32299;53.366;-1.544;2022-07-26T01:39:16;99086.57;;;17.57;41.99
46574;BME280;32299;53.366;-1.544;2022-07-26T01:41:43;99084.79;;;17.73;42.35
46574;BME280;32299;53.366;-1.544;2022-07-26T01:44:10;99081.05;;;17.66;42.56
46574;BME280;32299;53.366;-1.544;2022-07-26T01:46:37;99087.59;;;17.77;42.41
46574;BME280;32299;53.366;-1.544;2022-07-26T01:49:04;99090.19;;;17.47;42.43
46574;BME280;32299;53.366;-1.544;2022-07-26T01:51:31;99093.92;;;17.47;42.44
46574;BME280;32299;53.366;-1.544;2022-07-26T01:53:59;99092.19;;;17.63;42.61
46574;BME280;32299;53.366;-1.544;2022-07-26T01:56:26;99092.29;;;17.45;42.51
46574;BME280;32299;53.366;-1.544;2022-07-26T01:58:53;99096.40;;;17.51;42.41
46574;BME280;32299;53.366;-1.544;2022-07-26T02:01:20;99095.80;;;17.45;42.57
46574;BME280;32299;53.366;-1.544;2022-07-26T02:03:47;99097.55;;;17.41;42.59
46574;BME280;32299;53.366;-1.544;2022-07-26T02:06:14;99095.41;;;17.46;43.03
46574;BME280;32299;53.366;-1.544;2022-07-26T02:08:41;99095.73;;;17.39;43.28
46574;BME280;32299;53.366;-1.544;2022-07-26T02:11:08;99094.85;;;17.50;42.82
46574;BME280;32299;53.366;-1.544;2022-07-26T02:13:36;99095.54;;;17.47;42.90
46574;BME280;32299;53.366;-1.544;2022-07-26T02:16:07;99094.59;;;17.22;42.81
46574;BME280;32299;53.366;-1.544;2022-07-26T02:18:34;99089.58;;;17.25;42.54
46574;BME280;32299;53.366;-1.544;2022-07-26T02:21:02;99089.82;;;17.44;42.81
46574;BME280;32299;53.366;-1.544;2022-07-26T02:23:30;99087.65;;;17.18;42.86
46574;BME280;32299;53.366;-1.544;2022-07-26T02:25:58;99090.16;;;17.57;42.34
46574;BME280;32299;53.366;-1.544;2022-07-26T02:28:26;99093.11;;;17.39;42.99
46574;BME280;32299;53.366;-1.544;2022-07-26T02:30:54;99091.91;;;17.51;42.84
46574;BME280;32299;53.366;-1.544;2022-07-26T02:33:21;99091.90;;;17.25;42.70
46574;BME280;32299;53.366;-1.544;2022-07-26T02:35:48;99088.95;;;17.53;42.76
46574;BME280;32299;53.366;-1.544;2022-07-26T02:38:15;99089.50;;;17.42;42.69
46574;BME280;32299;53.366;-1.544;2022-07-26T02:40:43;99091.29;;;17.08;43.14
46574;BME280;32299;53.366;-1.544;2022-07-26T02:43:10;99092.88;;;17.44;42.94
46574;BME280;32299;53.366;-1.544;2022-07-26T02:45:38;99098.38;;;17.20;42.97
46574;BME280;32299;53.366;-1.544;2022-07-26T02:48:06;99102.80;;;17.13;42.95
46574;BME280;32299;53.366;-1.544;2022-07-26T02:50:33;99106.48;;;17.38;42.65
46574;BME280;32299;53.366;-1.544;2022-07-26T02:53:01;99107.90;;;17.57;42.63
46574;BME280;32299;53.366;-1.544;2022-07-26T02:55:28;99105.95;;;17.24;42.94
46574;BME280;32299;53.366;-1.544;2022-07-26T02:57:55;99109.66;;;17.16;42.79
46574;BME280;32299;53.366;-1.544;2022-07-26T03:00:24;99107.48;;;17.46;42.53
46574;BME280;32299;53.366;-1.544;2022-07-26T03:02:53;99110.00;;;17.18;42.63
46574;BME280;32299;53.366;-1.544;2022-07-26T03:05:20;99114.18;;;17.15;42.63
46574;BME280;32299;53.366;-1.544;2022-07-26T03:07:48;99113.78;;;17.45;42.57
46574;BME280;32299;53.366;-1.544;2022-07-26T03:10:16;99116.08;;;17.45;42.60
46574;BME280;32299;53.366;-1.544;2022-07-26T03:12:43;99115.66;;;17.53;42.44
46574;BME280;32299;53.366;-1.544;2022-07-26T03:15:11;99116.67;;;17.53;42.46
46574;BME280;32299;53.366;-1.544;2022-07-26T03:17:38;99117.84;;;17.15;42.57
46574;BME280;32299;53.366;-1.544;2022-07-26T03:20:06;99118.87;;;17.51;42.48
46574;BME280;32299;53.366;-1.544;2022-07-26T03:22:34;99122.33;;;17.72;42.60
46574;BME280;32299;53.366;-1.544;2022-07-26T03:25:01;99122.84;;;17.50;42.54
46574;BME280;32299;53.366;-1.544;2022-07-26T03:27:27;99122.48;;;17.43;42.67
46574;BME280;32299;53.366;-1.544;2022-07-26T03:29:54;99127.17;;;17.47;42.47
46574;BME280;32299;53.366;-1.544;2022-07-26T03:32:22;99130.80;;;17.18;42.54
46574;BME280;32299;53.366;-1.544;2022-07-26T03:34:49;99134.65;;;17.74;42.39
46574;BME280;32299;53.366;-1.544;2022-07-26T03:37:17;99141.55;;;17.20;42.44
46574;BME280;32299;53.366;-1.544;2022-07-26T03:39:45;99144.95;;;17.32;42.70
46574;BME280;32299;53.366;-1.544;2022-07-26T03:42:12;99152.53;;;17.56;42.26
46574;BME280;32299;53.366;-1.544;2022-07-26T03:44:40;99151.27;;;17.57;42.01
46574;BME280;32299;53.366;-1.544;2022-07-26T03:47:06;99151.21;;;17.20;42.41
46574;BME280;32299;53.366;-1.544;2022-07-26T03:49:33;99152.28;;;17.19;42.44
46574;BME280;32299;53.366;-1.544;2022-07-26T03:52:00;99154.10;;;17.48;42.45
46574;BME280;32299;53.366;-1.544;2022-07-26T03:54:28;99158.71;;;17.53;42.12
46574;BME280;32299;53.366;-1.544;2022-07-26T03:56:55;99161.22;;;17.50;42.49
46574;BME280;32299;53.366;-1.544;2022-07-26T03:59:22;99163.60;;;17.31;42.30
46574;BME280;32299;53.366;-1.544;2022-07-26T04:01:49;99163.23;;;17.47;42.52
46574;BME280;32299;53.366;-1.544;2022-07-26T04:04:17;99165.03;;;17.52;42.38
46574;BME280;32299;53.366;-1.544;2022-07-26T04:06:45;99165.13;;;17.22;42.35
46574;BME280;32299;53.366;-1.544;2022-07-26T04:09:14;99163.36;;;17.53;42.32
46574;BME280;32299;53.366;-1.544;2022-07-26T04:11:42;99166.73;;;17.52;42.31
46574;BME280;32299;53.366;-1.544;2022-07-26T04:14:10;99166.81;;;17.63;42.60
46574;BME280;32299;53.366;-1.544;2022-07-26T04:16:38;99169.75;;;17.18;42.41
46574;BME280;32299;53.366;-1.544;2022-07-26T04:19:05;99171.85;;;17.21;42.47
46574;BME280;32299;53.366;-1.544;2022-07-26T04:21:32;99171.08;;;17.47;42.42
46574;BME280;32299;53.366;-1.544;2022-07-26T04:24:00;99172.21;;;17.23;42.37
46574;BME280;32299;53.366;-1.544;2022-07-26T04:26:27;99172.58;;;17.15;42.51
46574;BME280;32299;53.366;-1.544;2022-07-26T04:28:54;99170.67;;;17.22;42.38
46574;BME280;32299;53.366;-1.544;2022-07-26T04:31:22;99173.09;;;17.70;42.44
46574;BME280;32299;53.366;-1.544;2022-07-26T04:33:48;99175.46;;;17.47;42.34
46574;BME280;32299;53.366;-1.544;2022-07-26T04:36:15;99172.77;;;17.18;42.44
46574;BME280;32299;53.366;-1.544;2022-07-26T04:38:43;99174.75;;;17.46;42.45
46574;BME280;32299;53.366;-1.544;2022-07-26T04:41:10;99178.51;;;17.53;42.39
46574;BME280;32299;53.366;-1.544;2022-07-26T04:43:37;99183.34;;;17.51;42.37
46574;BME280;32299;53.366;-1.544;2022-07-26T04:46:04;99185.49;;;17.56;42.27
46574;BME280;32299;53.366;-1.544;2022-07-26T04:48:32;99187.04;;;17.54;42.35
46574;BME280;32299;53.366;-1.544;2022-07-26T04:50:59;99186.49;;;17.32;42.35
46574;BME280;32299;53.366;-1.544;2022-07-26T04:53:26;99191.16;;;17.55;42.45
46574;BME280;32299;53.366;-1.544;2022-07-26T04:55:53;99194.04;;;17.30;42.42
46574;BME280;32299;53.366;-1.544;2022-07-26T04:58:20;99197.98;;;17.30;42.45
46574;BME280;32299;53.366;-1.544;2022-07-26T05:00:47;99198.81;;;17.60;42.38
46574;BME280;32299;53.366;-1.544;2022-07-26T05:03:14;99202.55;;;17.58;42.32
46574;BME280;32299;53.366;-1.544;2022-07-26T05:05:41;99204.15;;;17.29;42.53
46574;BME280;32299;53.366;-1.544;2022-07-26T05:08:09;99207.31;;;17.57;42.61
46574;BME280;32299;53.366;-1.544;2022-07-26T05:10:36;99207.72;;;17.32;42.59
46574;BME280;32299;53.366;-1.544;2022-07-26T05:13:04;99208.90;;;17.27;42.63
46574;BME280;32299;53.366;-1.544;2022-07-26T05:15:33;99209.28;;;17.55;42.41
46574;BME280;32299;53.366;-1.544;2022-07-26T05:18:02;99205.10;;;17.17;42.56
46574;BME280;32299;53.366;-1.544;2022-07-26T05:20:29;99205.39;;;17.49;42.57
46574;BME280;32299;53.366;-1.544;2022-07-26T05:22:56;99202.49;;;17.70;42.42
46574;BME280;32299;53.366;-1.544;2022-07-26T05:25:24;99203.20;;;17.15;42.61
46574;BME280;32299;53.366;-1.544;2022-07-26T05:27:52;99205.82;;;17.52;42.57
46574;BME280;32299;53.366;-1.544;2022-07-26T05:30:20;99205.63;;;17.14;42.75
46574;BME280;32299;53.366;-1.544;2022-07-26T05:32:46;99207.39;;;17.81;42.39
46574;BME280;32299;53.366;-1.544;2022-07-26T05:35:14;99207.61;;;17.33;42.58
46574;BME280;32299;53.366;-1.544;2022-07-26T05:37:41;99208.31;;;17.27;42.75
46574;BME280;32299;53.366;-1.544;2022-07-26T05:40:09;99213.14;;;17.66;42.65
46574;BME280;32299;53.366;-1.544;2022-07-26T05:42:36;99215.63;;;17.42;42.64
46574;BME280;32299;53.366;-1.544;2022-07-26T05:45:04;99219.69;;;17.43;42.70
46574;BME280;32299;53.366;-1.544;2022-07-26T05:47:32;99218.33;;;17.25;43.04
46574;BME280;32299;53.366;-1.544;2022-07-26T05:50:00;99222.45;;;17.43;42.79
46574;BME280;32299;53.366;-1.544;2022-07-26T05:52:28;99224.94;;;17.73;42.77
46574;BME280;32299;53.366;-1.544;2022-07-26T05:54:55;99228.26;;;17.59;42.54
46574;BME280;32299;53.366;-1.544;2022-07-26T05:57:23;99230.85;;;17.32;43.21
46574;BME280;32299;53.366;-1.544;2022-07-26T05:59:50;99230.86;;;17.87;42.66
46574;BME280;32299;53.366;-1.544;2022-07-26T06:02:18;99230.42;;;18.00;42.20
46574;BME280;32299;53.366;-1.544;2022-07-26T06:04:45;99230.59;;;17.57;42.76
46574;BME280;32299;53.366;-1.544;2022-07-26T06:07:12;99231.34;;;17.82;42.52
46574;BME280;32299;53.366;-1.544;2022-07-26T06:09:39;99227.48;;;17.74;42.62
46574;BME280;32299;53.366;-1.544;2022-07-26T06:12:07;99227.99;;;17.84;42.54
46574;BME280;32299;53.366;-1.544;2022-07-26T06:14:34;99225.25;;;17.90;42.53
46574;BME280;32299;53.366;-1.544;2022-07-26T06:17:02;99223.97;;;17.98;42.71
46574;BME280;32299;53.366;-1.544;2022-07-26T06:19:30;99231.67;;;17.97;42.31
46574;BME280;32299;53.366;-1.544;2022-07-26T06:21:58;99231.52;;;18.03;42.60
46574;BME280;32299;53.366;-1.544;2022-07-26T06:24:25;99237.71;;;15.84;45.98
46574;BME280;32299;53.366;-1.544;2022-07-26T06:26:52;99235.08;;;17.90;42.68
46574;BME280;32299;53.366;-1.544;2022-07-26T06:29:19;99236.00;;;18.00;42.17
46574;BME280;32299;53.366;-1.544;2022-07-26T06:31:47;99236.34;;;18.15;42.05
46574;BME280;32299;53.366;-1.544;2022-07-26T06:34:14;99239.86;;;18.38;41.50
46574;BME280;32299;53.366;-1.544;2022-07-26T06:36:42;99243.73;;;18.15;41.98
46574;BME280;32299;53.366;-1.544;2022-07-26T06:39:09;99244.20;;;18.21;41.79
46574;BME280;32299;53.366;-1.544;2022-07-26T06:41:36;99247.65;;;18.46;41.44
46574;BME280;32299;53.366;-1.544;2022-07-26T06:44:03;99248.45;;;18.41;40.91
46574;BME280;32299;53.366;-1.544;2022-07-26T06:46:30;99248.11;;;17.86;42.39
46574;BME280;32299;53.366;-1.544;2022-07-26T06:48:57;99248.05;;;18.65;41.13
46574;BME280;32299;53.366;-1.544;2022-07-26T06:51:24;99248.84;;;18.54;40.94
46574;BME280;32299;53.366;-1.544;2022-07-26T06:53:51;99253.23;;;18.07;41.36
46574;BME280;32299;53.366;-1.544;2022-07-26T06:56:19;99253.85;;;17.89;42.73
46574;BME280;32299;53.366;-1.544;2022-07-26T06:58:46;99257.87;;;18.11;41.57
46574;BME280;32299;53.366;-1.544;2022-07-26T07:01:14;99263.00;;;18.32;41.18
46574;BME280;32299;53.366;-1.544;2022-07-26T07:03:41;99264.80;;;18.40;41.39
46574;BME280;32299;53.366;-1.544;2022-07-26T07:06:08;99267.08;;;18.34;41.12
46574;BME280;32299;53.366;-1.544;2022-07-26T07:08:35;99268.53;;;18.33;41.35
46574;BME280;32299;53.366;-1.544;2022-07-26T07:11:02;99272.09;;;18.46;40.96
46574;BME280;32299;53.366;-1.544;2022-07-26T07:13:29;99274.69;;;18.40;41.34
46574;BME280;32299;53.366;-1.544;2022-07-26T07:15:56;99278.72;;;18.61;41.34
46574;BME280;32299;53.366;-1.544;2022-07-26T07:18:23;99279.07;;;18.19;42.58
46574;BME280;32299;53.366;-1.544;2022-07-26T07:20:50;99283.14;;;17.81;42.08
46574;BME280;32299;53.366;-1.544;2022-07-26T07:23:17;99282.83;;;18.54;41.02
46574;BME280;32299;53.366;-1.544;2022-07-26T07:25:44;99286.29;;;18.22;41.23
46574;BME280;32299;53.366;-1.544;2022-07-26T07:28:11;99287.16;;;18.26;42.34
46574;BME280;32299;53.366;-1.544;2022-07-26T07:30:38;99295.91;;;16.88;44.53
46574;BME280;32299;53.366;-1.544;2022-07-26T07:33:05;99300.98;;;16.51;45.27
46574;BME280;32299;53.366;-1.544;2022-07-26T07:35:32;99294.10;;;17.23;43.56
46574;BME280;32299;53.366;-1.544;2022-07-26T07:37:59;99294.80;;;17.68;43.40
46574;BME280;32299;53.366;-1.544;2022-07-26T07:40:27;99302.24;;;17.11;44.11
46574;BME280;32299;53.366;-1.544;2022-07-26T07:42:54;99302.09;;;17.65;43.94
46574;BME280;32299;53.366;-1.544;2022-07-26T07:45:21;99304.36;;;17.41;44.12
46574;BME280;32299;53.366;-1.544;2022-07-26T07:47:48;99308.13;;;17.02;44.44
46574;BME280;32299;53.366;-1.544;2022-07-26T07:50:15;99302.51;;;17.79;43.32
46574;BME280;32299;53.366;-1.544;2022-07-26T07:52:42;99304.58;;;17.08;44.17
46574;BME280;32299;53.366;-1.544;2022-07-26T07:55:09;99301.06;;;17.50;43.50
46574;BME280;32299;53.366;-1.544;2022-07-26T07:57:37;99306.32;;;16.75;45.86
46574;BME280;32299;53.366;-1.544;2022-07-26T08:00:06;99309.19;;;15.75;48.27
46574;BME280;32299;53.366;-1.544;2022-07-26T08:02:33;99307.34;;;16.52;45.47
46574;BME280;32299;53.366;-1.544;2022-07-26T08:05:00;99303.97;;;17.03;44.56
46574;BME280;32299;53.366;-1.544;2022-07-26T08:07:28;99308.97;;;17.23;44.73
46574;BME280;32299;53.366;-1.544;2022-07-26T08:09:56;99310.22;;;17.35;44.10
46574;BME280;32299;53.366;-1.544;2022-07-26T08:12:23;99310.87;;;16.06;48.27
46574;BME280;32299;53.366;-1.544;2022-07-26T08:14:50;99308.64;;;17.24;44.57
46574;BME280;32299;53.366;-1.544;2022-07-26T08:17:17;99310.43;;;16.88;46.02
46574;BME280;32299;53.366;-1.544;2022-07-26T08:19:44;99311.85;;;17.25;45.18
46574;BME280;32299;53.366;-1.544;2022-07-26T08:22:11;99316.22;;;17.20;45.44
46574;BME280;32299;53.366;-1.544;2022-07-26T08:24:38;99321.55;;;14.76;51.61
46574;BME280;32299;53.366;-1.544;2022-07-26T08:27:04;99316.97;;;15.35;50.65
46574;BME280;32299;53.366;-1.544;2022-07-26T08:29:31;99317.53;;;15.90;49.16
46574;BME280;32299;53.366;-1.544;2022-07-26T08:31:58;99319.56;;;16.79;46.69
46574;BME280;32299;53.366;-1.544;2022-07-26T08:34:25;99320.09;;;16.94;46.63
46574;BME280;32299;53.366;-1.544;2022-07-26T08:36:52;99318.93;;;16.71;46.20
46574;BME280;32299;53.366;-1.544;2022-07-26T08:39:19;99318.35;;;16.68;45.74
46574;BME280;32299;53.366;-1.544;2022-07-26T08:41:46;99322.38;;;16.96;46.67
46574;BME280;32299;53.366;-1.544;2022-07-26T08:44:13;99320.39;;;17.38;45.23
46574;BME280;32299;53.366;-1.544;2022-07-26T08:46:41;99319.58;;;16.94;45.32
46574;BME280;32299;53.366;-1.544;2022-07-26T08:49:10;99317.01;;;17.03;45.51
46574;BME280;32299;53.366;-1.544;2022-07-26T08:51:38;99320.98;;;17.10;46.54
46574;BME280;32299;53.366;-1.544;2022-07-26T08:54:05;99327.99;;;16.69;46.86
46574;BME280;32299;53.366;-1.544;2022-07-26T08:56:34;99329.91;;;16.14;49.05
46574;BME280;32299;53.366;-1.544;2022-07-26T08:59:04;99324.66;;;17.61;45.90
46574;BME280;32299;53.366;-1.544;2022-07-26T09:01:31;99326.11;;;17.35;45.07
46574;BME280;32299;53.366;-1.544;2022-07-26T09:04:17;99329.38;;;17.62;44.80
46574;BME280;32299;53.366;-1.544;2022-07-26T09:06:55;99330.36;;;17.50;44.83
46574;BME280;32299;53.366;-1.544;2022-07-26T09:09:23;99332.94;;;18.03;45.22
46574;BME280;32299;53.366;-1.544;2022-07-26T09:11:50;99331.84;;;18.02;45.34
46574;BME280;32299;53.366;-1.544;2022-07-26T09:14:17;99327.30;;;18.21;45.74
46574;BME280;32299;53.366;-1.544;2022-07-26T09:16:56;99330.87;;;18.23;45.81
46574;BME280;32299;53.366;-1.544;2022-07-26T09:19:24;99331.66;;;18.72;45.00
46574;BME280;32299;53.366;-1.544;2022-07-26T09:21:53;99337.30;;;18.12;45.79
46574;BME280;32299;53.366;-1.544;2022-07-26T09:24:37;99338.46;;;19.06;44.92
46574;BME280;32299;53.366;-1.544;2022-07-26T09:27:07;99337.57;;;18.78;43.23
46574;BME280;32299;53.366;-1.544;2022-07-26T09:29:43;99338.93;;;18.66;43.31
46574;BME280;32299;53.366;-1.544;2022-07-26T09:32:13;99346.46;;;18.46;44.26
46574;BME280;32299;53.366;-1.544;2022-07-26T09:34:40;99343.85;;;17.85;44.48
46574;BME280;32299;53.366;-1.544;2022-07-26T09:37:08;99347.29;;;18.16;44.06
46574;BME280;32299;53.366;-1.544;2022-07-26T09:39:52;99351.24;;;17.93;43.58
46574;BME280;32299;53.366;-1.544;2022-07-26T09:42:20;99346.64;;;18.82;42.41
46574;BME280;32299;53.366;-1.544;2022-07-26T09:44:47;99346.47;;;18.81;42.75
46574;BME280;32299;53.366;-1.544;2022-07-26T09:47:14;99350.91;;;16.97;44.28
46574;BME280;32299;53.366;-1.544;2022-07-26T09:49:42;99348.61;;;18.60;44.48
46574;BME280;32299;53.366;-1.544;2022-07-26T09:52:14;99347.05;;;19.23;44.42
46574;BME280;32299;53.366;-1.544;2022-07-26T09:54:43;99345.57;;;19.17;43.07
46574;BME280;32299;53.366;-1.544;2022-07-26T09:57:10;99346.67;;;18.90;44.65
46574;BME280;32299;53.366;-1.544;2022-07-26T09:59:37;99347.02;;;19.38;43.38
46574;BME280;32299;53.366;-1.544;2022-07-26T10:02:04;99350.27;;;19.26;43.38
46574;BME280;32299;53.366;-1.544;2022-07-26T10:04:31;99349.61;;;18.91;43.47
46574;BME280;32299;53.366;-1.544;2022-07-26T10:06:58;99352.08;;;18.01;43.83
46574;BME280;32299;53.366;-1.544;2022-07-26T10:09:33;99352.24;;;18.99;43.52
46574;BME280;32299;53.366;-1.544;2022-07-26T10:12:06;99347.79;;;19.60;42.70
46574;BME280;32299;53.366;-1.544;2022-07-26T10:14:35;99352.19;;;18.44;44.47
46574;BME280;32299;53.366;-1.544;2022-07-26T10:17:40;99353.00;;;18.70;41.91
46574;BME280;32299;53.366;-1.544;2022-07-26T10:20:09;99349.04;;;19.78;42.32
46574;BME280;32299;53.366;-1.544;2022-07-26T10:22:42;99345.40;;;20.12;41.28
46574;BME280;32299;53.366;-1.544;2022-07-26T10:25:46;99348.79;;;20.44;42.83
46574;BME280;32299;53.366;-1.544;2022-07-26T10:28:31;99348.82;;;20.83;41.50
46574;BME280;32299;53.366;-1.544;2022-07-26T10:31:30;99353.03;;;19.20;39.81
46574;BME280;32299;53.366;-1.544;2022-07-26T10:34:03;99352.07;;;20.61;39.64
46574;BME280;32299;53.366;-1.544;2022-07-26T10:36:34;99354.22;;;20.69;39.01
46574;BME280;32299;53.366;-1.544;2022-07-26T10:39:06;99350.23;;;20.94;38.11
46574;BME280;32299;53.366;-1.544;2022-07-26T10:41:35;99354.90;;;20.70;38.59
46574;BME280;32299;53.366;-1.544;2022-07-26T10:44:37;99355.89;;;21.35;37.85
46574;BME280;32299;53.366;-1.544;2022-07-26T10:47:14;99356.61;;;19.90;37.31
46574;BME280;32299;53.366;-1.544;2022-07-26T10:49:52;99353.86;;;20.18;36.51
46574;BME280;32299;53.366;-1.544;2022-07-26T10:52:21;99360.00;;;18.49;41.42
46574;BME280;32299;53.366;-1.544;2022-07-26T10:55:06;99362.39;;;19.04;40.28
46574;BME280;32299;53.366;-1.544;2022-07-26T10:57:36;99367.71;;;18.19;41.19
46574;BME280;32299;53.366;-1.544;2022-07-26T11:00:09;99366.79;;;18.67;39.89
46574;BME280;32299;53.366;-1.544;2022-07-26T11:02:37;99368.76;;;18.93;41.31
46574;BME280;32299;53.366;-1.544;2022-07-26T11:05:07;99370.26;;;18.77;40.43
46574;BME280;32299;53.366;-1.544;2022-07-26T11:07:47;99371.55;;;18.00;42.85
46574;BME280;32299;53.366;-1.544;2022-07-26T11:10:16;99374.59;;;18.66;41.25
46574;BME280;32299;53.366;-1.544;2022-07-26T11:12:47;99373.82;;;17.29;42.25
46574;BME280;32299;53.366;-1.544;2022-07-26T11:15:16;99372.01;;;18.04;42.56
46574;BME280;32299;53.366;-1.544;2022-07-26T11:17:44;99369.34;;;19.03;41.10
46574;BME280;32299;53.366;-1.544;2022-07-26T11:20:11;99368.47;;;18.70;41.88
46574;BME280;32299;53.366;-1.544;2022-07-26T11:22:49;99373.80;;;17.20;42.29
46574;BME280;32299;53.366;-1.544;2022-07-26T11:25:20;99372.60;;;17.35;42.47
46574;BME280;32299;53.366;-1.544;2022-07-26T11:28:04;99380.88;;;17.14;43.29
46574;BME280;32299;53.366;-1.544;2022-07-26T11:30:32;99380.26;;;18.38;40.87
46574;BME280;32299;53.366;-1.544;2022-07-26T11:32:59;99377.07;;;18.12;40.76
46574;BME280;32299;53.366;-1.544;2022-07-26T11:35:26;99379.07;;;18.32;41.62
46574;BME280;32299;53.366;-1.544;2022-07-26T11:37:54;99375.82;;;18.91;40.68
46574;BME280;32299;53.366;-1.544;2022-07-26T11:40:55;99380.00;;;18.52;41.57
46574;BME280;32299;53.366;-1.544;2022-07-26T11:43:22;99385.86;;;18.34;41.03
46574;BME280;32299;53.366;-1.544;2022-07-26T11:45:51;99387.04;;;18.40;42.00
46574;BME280;32299;53.366;-1.544;2022-07-26T11:48:18;99384.34;;;18.86;41.64
46574;BME280;32299;53.366;-1.544;2022-07-26T11:50:45;99379.75;;;19.25;41.43
46574;BME280;32299;53.366;-1.544;2022-07-26T11:53:20;99371.69;;;19.81;39.62
46574;BME280;32299;53.366;-1.544;2022-07-26T11:55:48;99373.17;;;20.09;39.06
46574;BME280;32299;53.366;-1.544;2022-07-26T11:58:14;99371.47;;;20.67;40.53
46574;BME280;32299;53.366;-1.544;2022-07-26T12:00:42;99370.66;;;20.52;39.47
46574;BME280;32299;53.366;-1.544;2022-07-26T12:03:08;99365.14;;;21.82;39.44
46574;BME280;32299;53.366;-1.544;2022-07-26T12:05:36;99360.24;;;23.14;39.70
46574;BME280;32299;53.366;-1.544;2022-07-26T12:08:03;99361.46;;;23.04;36.27
46574;BME280;32299;53.366;-1.544;2022-07-26T12:10:31;99358.74;;;23.30;33.47
46574;BME280;32299;53.366;-1.544;2022-07-26T12:13:07;99360.08;;;23.28;34.47
46574;BME280;32299;53.366;-1.544;2022-07-26T12:15:51;99357.38;;;22.94;33.07
46574;BME280;32299;53.366;-1.544;2022-07-26T12:18:23;99361.23;;;22.28;35.05
46574;BME280;32299;53.366;-1.544;2022-07-26T12:21:00;99356.14;;;23.49;32.66
46574;BME280;32299;53.366;-1.544;2022-07-26T12:23:39;99357.93;;;24.13;35.68
46574;BME280;32299;53.366;-1.544;2022-07-26T12:26:25;99359.93;;;23.39;35.44
46574;BME280;32299;53.366;-1.544;2022-07-26T12:28:53;99355.90;;;24.95;34.24
46574;BME280;32299;53.366;-1.544;2022-07-26T12:31:23;99354.47;;;24.87;32.31
46574;BME280;32299;53.366;-1.544;2022-07-26T12:33:50;99359.66;;;23.59;30.83
46574;BME280;32299;53.366;-1.544;2022-07-26T12:36:18;99355.80;;;23.66;29.25
46574;BME280;32299;53.366;-1.544;2022-07-26T12:38:45;99353.03;;;24.46;28.91
46574;BME280;32299;53.366;-1.544;2022-07-26T12:41:17;99351.52;;;25.18;31.42
46574;BME280;32299;53.366;-1.544;2022-07-26T12:43:56;99355.52;;;24.47;30.24
46574;BME280;32299;53.366;-1.544;2022-07-26T12:46:23;99356.10;;;24.73;30.31
46574;BME280;32299;53.366;-1.544;2022-07-26T12:48:50;99354.49;;;25.00;29.97
46574;BME280;32299;53.366;-1.544;2022-07-26T12:51:17;99352.65;;;25.88;28.94
46574;BME280;32299;53.366;-1.544;2022-07-26T12:53:44;99351.36;;;25.55;29.26
46574;BME280;32299;53.366;-1.544;2022-07-26T12:56:11;99355.81;;;23.18;30.91
46574;BME280;32299;53.366;-1.544;2022-07-26T12:58:38;99350.11;;;24.99;30.54